createdAt,value
2018-03-27T00:00:56.074Z,21.97
2018-03-27T00:03:00.709Z,20.63
2018-03-27T00:05:04.561Z,20.40
2018-03-27T00:07:08.488Z,22.27
2018-03-27T00:09:12.555Z,22.03
2018-03-27T00:11:16.344Z,20.47
2018-03-27T00:13:20.603Z,21.00
2018-03-27T00:15:29.897Z,23.27
2018-03-27T00:17:33.635Z,21.83
2018-03-27T00:19:37.413Z,20.70
2018-03-27T00:21:41.537Z,21.43
2018-03-27T00:23:45.299Z,22.37
2018-03-27T00:25:49.055Z,20.47
2018-03-27T00:28:04.479Z,22.00
2018-03-27T00:30:19.118Z,19.90
2018-03-27T00:32:34.204Z,21.13
2018-03-27T00:34:49.570Z,20.37
2018-03-27T00:37:04.253Z,21.00
2018-03-27T00:39:19.306Z,22.20
2018-03-27T00:41:32.681Z,22.50
2018-03-27T00:43:40.669Z,22.07
2018-03-27T00:45:44.556Z,22.40
2018-03-27T00:47:49.267Z,23.00
2018-03-27T00:49:54.437Z,21.80
2018-03-27T00:51:58.545Z,21.90
2018-03-27T00:54:02.866Z,22.63
2018-03-27T00:56:07.131Z,24.20
2018-03-27T00:58:11.370Z,22.67
2018-03-27T01:00:15.992Z,24.20
2018-03-27T01:02:23.720Z,23.47
2018-03-27T01:04:27.620Z,23.80
2018-03-27T01:06:31.936Z,22.87
2018-03-27T01:08:36.292Z,24.07
2018-03-27T01:10:40.425Z,24.33
2018-03-27T01:12:44.527Z,24.57
2018-03-27T01:14:48.495Z,25.13
2018-03-27T01:16:52.408Z,25.27
2018-03-27T01:18:56.908Z,26.20
2018-03-27T01:21:01.174Z,24.30
2018-03-27T01:23:05.383Z,25.70
2018-03-27T01:25:09.855Z,25.97
2018-03-27T01:27:13.858Z,24.77
2018-03-27T01:29:17.947Z,24.70
2018-03-27T01:31:22.282Z,22.83
2018-03-27T01:33:26.499Z,25.40
2018-03-27T01:35:30.707Z,23.43
2018-03-27T01:37:35.044Z,23.57
2018-03-27T01:39:39.040Z,23.67
2018-03-27T01:41:43.051Z,23.30
2018-03-27T01:43:47.303Z,21.40
2018-03-27T01:45:51.274Z,23.10
2018-03-27T01:47:55.354Z,22.90
2018-03-27T01:49:59.859Z,21.90
2018-03-27T01:52:03.703Z,22.27
2018-03-27T01:54:07.907Z,21.90
2018-03-27T01:56:12.302Z,21.70
2018-03-27T01:58:16.248Z,22.30
2018-03-27T02:00:20.147Z,21.43
2018-03-27T02:02:24.659Z,23.50
2018-03-27T02:04:28.647Z,21.30
2018-03-27T02:06:32.723Z,22.10
2018-03-27T02:08:37.262Z,21.10
2018-03-27T02:10:40.132Z,21.60
2018-03-27T02:12:49.430Z,22.13
2018-03-27T02:14:59.059Z,23.20
2018-03-27T02:17:08.719Z,23.43
2018-03-27T02:19:18.373Z,22.80
2018-03-27T02:21:24.518Z,22.37
2018-03-27T02:23:28.839Z,22.47
2018-03-27T02:25:32.732Z,21.97
2018-03-27T02:27:37.191Z,23.20
2018-03-27T02:29:41.319Z,22.63
2018-03-27T02:31:45.351Z,22.77
2018-03-27T02:33:49.752Z,21.83
2018-03-27T02:35:53.815Z,22.27
2018-03-27T02:37:57.989Z,23.70
2018-03-27T02:40:02.534Z,23.27
2018-03-27T02:42:06.556Z,23.10
2018-03-27T02:44:14.063Z,22.70
2018-03-27T02:46:18.311Z,23.10
2018-03-27T02:48:22.049Z,22.47
2018-03-27T02:50:25.966Z,23.43
2018-03-27T02:52:30.107Z,21.40
2018-03-27T02:54:34.147Z,24.00
2018-03-27T02:56:38.327Z,22.97
2018-03-27T02:58:42.310Z,21.53
2018-03-27T03:00:46.605Z,22.43
2018-03-27T03:02:50.957Z,22.23
2018-03-27T03:04:55.096Z,21.77
2018-03-27T03:06:59.346Z,22.23
2018-03-27T03:09:03.259Z,20.27
2018-03-27T03:11:09.199Z,21.67
2018-03-27T03:13:13.320Z,21.07
2018-03-27T03:15:17.615Z,20.57
2018-03-27T03:17:21.575Z,22.50
2018-03-27T03:19:26.127Z,22.57
2018-03-27T03:21:29.834Z,20.87
2018-03-27T03:23:33.635Z,20.60
2018-03-27T03:25:37.560Z,21.60
2018-03-27T03:27:41.744Z,21.80
2018-03-27T03:29:45.551Z,20.27
2018-03-27T03:31:49.355Z,20.97
2018-03-27T03:33:53.680Z,21.07
2018-03-27T03:35:57.703Z,23.23
2018-03-27T03:38:01.632Z,21.17
2018-03-27T03:40:05.709Z,21.70
2018-03-27T03:42:09.519Z,20.00
2018-03-27T03:44:13.355Z,20.97
2018-03-27T03:46:17.620Z,21.23
2018-03-27T03:48:21.658Z,20.87
2018-03-27T03:50:25.398Z,20.27
2018-03-27T03:52:29.327Z,22.80
2018-03-27T03:54:33.085Z,20.77
2018-03-27T03:56:37.576Z,21.67
2018-03-27T03:58:41.296Z,21.90
2018-03-27T04:00:45.597Z,21.67
2018-03-27T04:02:49.891Z,23.17
2018-03-27T04:04:53.930Z,21.40
2018-03-27T04:06:57.800Z,21.70
2018-03-27T04:09:01.530Z,21.20
2018-03-27T04:11:05.862Z,21.13
2018-03-27T04:13:09.934Z,21.30
2018-03-27T04:15:13.736Z,22.70
2018-03-27T04:17:18.056Z,21.27
2018-03-27T04:19:21.807Z,23.73
2018-03-27T04:21:25.558Z,21.43
2018-03-27T04:23:29.719Z,20.90
2018-03-27T04:25:33.847Z,22.40
2018-03-27T04:27:37.583Z,22.30
2018-03-27T04:29:41.715Z,22.73
2018-03-27T04:31:46.233Z,20.90
2018-03-27T04:33:50.452Z,20.60
2018-03-27T04:35:54.329Z,20.70
2018-03-27T04:37:58.423Z,23.60
2018-03-27T04:40:02.528Z,21.70
2018-03-27T04:42:06.350Z,22.00
2018-03-27T04:44:10.144Z,22.60
2018-03-27T04:46:14.363Z,22.97
2018-03-27T04:48:18.479Z,21.37
2018-03-27T04:50:22.475Z,22.67
2018-03-27T04:52:26.292Z,21.23
2018-03-27T04:54:30.384Z,22.83
2018-03-27T04:56:34.859Z,21.60
2018-03-27T04:58:38.639Z,21.60
2018-03-27T05:00:42.470Z,20.20
2018-03-27T05:02:46.952Z,20.87
2018-03-27T05:04:50.980Z,22.20
2018-03-27T05:06:54.886Z,20.73
2018-03-27T05:08:59.206Z,21.20
2018-03-27T05:11:03.187Z,21.77
2018-03-27T05:13:06.893Z,22.53
2018-03-27T05:15:11.160Z,20.97
2018-03-27T05:17:14.990Z,22.00
2018-03-27T05:19:18.735Z,21.00
2018-03-27T05:21:22.735Z,22.97
2018-03-27T05:23:26.516Z,25.90
2018-03-27T05:25:30.236Z,24.00
2018-03-27T05:27:34.303Z,22.90
2018-03-27T05:29:38.111Z,24.17
2018-03-27T05:31:41.879Z,25.87
2018-03-27T05:33:45.943Z,34.50
2018-03-27T05:35:49.676Z,29.97
2018-03-27T05:37:53.395Z,33.97
2018-03-27T05:39:58.574Z,120.17
2018-03-27T05:42:02.424Z,344.27
2018-03-27T05:44:06.204Z,390.10
2018-03-27T05:46:10.279Z,472.27
2018-03-27T05:48:14.059Z,478.10
2018-03-27T05:50:17.851Z,396.40
2018-03-27T05:52:21.921Z,568.13
2018-03-27T05:54:25.739Z,511.97
2018-03-27T05:56:29.456Z,708.37
2018-03-27T05:58:33.499Z,451.10
2018-03-27T06:00:37.222Z,173.30
2018-03-27T06:02:41.090Z,77.70
2018-03-27T06:04:45.173Z,55.27
2018-03-27T06:06:48.917Z,49.00
2018-03-27T06:08:52.668Z,108.80
2018-03-27T06:10:56.688Z,431.40
2018-03-27T06:13:00.427Z,347.77
2018-03-27T06:15:04.164Z,239.23
2018-03-27T06:17:08.288Z,372.67
2018-03-27T06:19:12.591Z,141.10
2018-03-27T06:21:16.319Z,773.00
2018-03-27T06:23:20.511Z,137.43
2018-03-27T06:25:24.457Z,83.17
2018-03-27T06:27:28.278Z,490.67
2018-03-27T06:29:32.335Z,761.27
2018-03-27T06:31:36.492Z,619.03
2018-03-27T06:33:40.227Z,195.73
2018-03-27T06:35:44.252Z,692.07
2018-03-27T06:37:47.979Z,125.77
2018-03-27T06:39:51.860Z,51.90
2018-03-27T06:41:55.975Z,42.83
2018-03-27T06:44:00.749Z,998.87
2018-03-27T06:46:04.537Z,999.90
2018-03-27T06:48:08.596Z,999.90
2018-03-27T06:50:12.568Z,713.17
2018-03-27T06:52:16.379Z,743.17
2018-03-27T06:54:20.435Z,248.30
2018-03-27T06:56:24.215Z,445.23
2018-03-27T06:58:27.969Z,823.40
2018-03-27T07:00:32.307Z,285.50
2018-03-27T07:02:36.054Z,121.43
2018-03-27T07:04:39.843Z,305.37
2018-03-27T07:06:44.648Z,59.00
2018-03-27T07:08:51.688Z,968.73
2018-03-27T07:10:55.566Z,928.80
2018-03-27T07:12:59.683Z,108.43
2018-03-27T07:15:07.665Z,545.33
2018-03-27T07:17:11.496Z,68.70
2018-03-27T07:19:15.541Z,40.77
2018-03-27T07:21:19.402Z,34.57
2018-03-27T07:23:27.545Z,176.30
2018-03-27T07:25:31.599Z,170.77
2018-03-27T07:27:35.343Z,55.80
2018-03-27T07:29:39.112Z,96.77
2018-03-27T07:31:43.149Z,246.67
2018-03-27T07:33:46.898Z,293.53
2018-03-27T07:35:50.677Z,391.60
2018-03-27T07:37:54.918Z,159.00
2018-03-27T07:39:58.793Z,75.80
2018-03-27T07:42:02.863Z,258.57
2018-03-27T07:44:06.982Z,109.53
2018-03-27T07:46:10.840Z,44.30
2018-03-27T07:48:14.740Z,42.53
2018-03-27T07:50:18.770Z,316.37
2018-03-27T07:52:22.513Z,718.93
2018-03-27T07:54:26.291Z,552.93
2018-03-27T07:56:30.632Z,291.27
2018-03-27T07:58:34.578Z,261.70
2018-03-27T08:00:38.319Z,211.23
2018-03-27T08:02:42.457Z,283.73
2018-03-27T08:04:46.228Z,111.00
2018-03-27T08:06:50.091Z,141.53
2018-03-27T08:08:54.586Z,76.57
2018-03-27T08:10:58.404Z,55.67
2018-03-27T08:13:02.160Z,40.80
2018-03-27T08:15:07.279Z,33.40
2018-03-27T08:17:11.228Z,810.30
2018-03-27T08:19:15.082Z,999.90
2018-03-27T08:21:19.202Z,398.20
2018-03-27T08:23:23.171Z,212.63
2018-03-27T08:25:27.111Z,999.90
2018-03-27T08:27:31.177Z,805.03
2018-03-27T08:29:35.196Z,276.83
2018-03-27T08:31:39.317Z,564.30
2018-03-27T08:33:43.655Z,183.27
2018-03-27T08:35:47.412Z,61.70
2018-03-27T08:37:51.349Z,42.77
2018-03-27T08:39:55.515Z,370.83
2018-03-27T08:41:59.353Z,82.07
2018-03-27T08:44:03.251Z,427.53
2018-03-27T08:46:07.710Z,339.47
2018-03-27T08:48:11.432Z,400.53
2018-03-27T08:50:15.352Z,325.77
2018-03-27T08:52:19.382Z,424.33
2018-03-27T08:54:23.124Z,629.47
2018-03-27T08:56:26.912Z,543.93
2018-03-27T08:58:31.103Z,497.53
2018-03-27T09:00:34.875Z,827.80
2018-03-27T09:02:38.623Z,438.77
2018-03-27T09:04:42.646Z,288.87
2018-03-27T09:06:46.382Z,513.50
2018-03-27T09:08:50.107Z,709.03
2018-03-27T09:10:54.257Z,275.23
2018-03-27T09:12:57.982Z,745.60
2018-03-27T09:15:05.464Z,994.43
2018-03-27T09:17:09.488Z,396.50
2018-03-27T09:19:13.279Z,956.67
2018-03-27T09:21:17.099Z,400.77
2018-03-27T09:23:21.165Z,307.13
2018-03-27T09:25:24.975Z,193.70
2018-03-27T09:27:28.778Z,112.33
2018-03-27T09:29:33.223Z,85.97
2018-03-27T09:31:37.150Z,98.67
2018-03-27T09:33:40.895Z,746.07
2018-03-27T09:35:45.012Z,999.90
2018-03-27T09:37:48.770Z,776.13
2018-03-27T09:39:52.581Z,505.40
2018-03-27T09:41:56.659Z,923.33
2018-03-27T09:44:00.404Z,529.30
2018-03-27T09:46:04.287Z,549.57
2018-03-27T09:48:08.600Z,686.43
2018-03-27T09:50:12.366Z,931.67
2018-03-27T09:52:16.106Z,588.03
2018-03-27T09:54:20.121Z,762.47
2018-03-27T09:56:23.936Z,547.40
2018-03-27T09:58:27.946Z,742.93
2018-03-27T10:00:36.143Z,599.70
2018-03-27T10:02:40.151Z,444.17
2018-03-27T10:04:43.890Z,543.33
2018-03-27T10:06:48.924Z,306.07
2018-03-27T10:08:53.319Z,261.50
2018-03-27T10:10:57.292Z,202.47
2018-03-27T10:13:01.462Z,116.50
2018-03-27T10:15:05.558Z,92.20
2018-03-27T10:17:10.892Z,59.70
2018-03-27T10:19:15.579Z,70.30
2018-03-27T10:21:19.565Z,51.13
2018-03-27T10:23:23.653Z,36.67
2018-03-27T10:25:28.270Z,31.93
2018-03-27T10:27:32.010Z,28.33
2018-03-27T10:29:36.140Z,27.90
2018-03-27T10:31:40.209Z,26.80
2018-03-27T10:33:44.327Z,319.17
2018-03-27T10:35:48.299Z,183.43
2018-03-27T10:37:52.519Z,371.70
2018-03-27T10:39:56.600Z,321.27
2018-03-27T10:42:00.410Z,641.37
2018-03-27T10:44:04.616Z,582.23
2018-03-27T10:46:08.376Z,521.70
2018-03-27T10:48:13.344Z,458.20
2018-03-27T10:50:17.550Z,650.63
2018-03-27T10:52:21.649Z,584.93
2018-03-27T10:54:25.803Z,468.90
2018-03-27T10:56:29.882Z,598.37
2018-03-27T10:58:33.720Z,590.43
2018-03-27T11:00:37.571Z,559.70
2018-03-27T11:02:42.195Z,636.37
2018-03-27T11:04:45.999Z,755.07
2018-03-27T11:06:49.838Z,573.53
2018-03-27T11:08:53.906Z,638.73
2018-03-27T11:10:57.634Z,517.87
2018-03-27T11:13:01.355Z,548.00
2018-03-27T11:15:05.831Z,597.70
2018-03-27T11:17:09.607Z,614.20
2018-03-27T11:19:13.351Z,878.60
2018-03-27T11:21:17.398Z,608.03
2018-03-27T11:23:21.765Z,534.97
2018-03-27T11:25:25.466Z,380.43
2018-03-27T11:27:29.855Z,594.97
2018-03-27T11:29:33.586Z,435.93
2018-03-27T11:31:37.315Z,855.40
2018-03-27T11:33:41.330Z,822.40
2018-03-27T11:35:45.813Z,366.20
2018-03-27T11:37:49.832Z,272.90
2018-03-27T11:39:54.063Z,149.67
2018-03-27T11:41:57.810Z,809.53
2018-03-27T11:44:01.586Z,143.90
2018-03-27T11:46:05.827Z,102.53
2018-03-27T11:48:09.590Z,543.27
2018-03-27T11:50:13.322Z,354.77
2018-03-27T11:52:17.803Z,395.60
2018-03-27T11:54:21.618Z,613.53
2018-03-27T11:56:25.605Z,453.83
2018-03-27T11:58:29.610Z,396.67
2018-03-27T12:00:33.448Z,323.63
2018-03-27T12:02:37.305Z,317.57
2018-03-27T12:04:41.455Z,260.77
2018-03-27T12:06:45.604Z,204.63
2018-03-27T12:08:49.375Z,198.97
2018-03-27T12:10:53.556Z,763.90
2018-03-27T12:12:57.296Z,606.60
2018-03-27T12:15:01.577Z,613.13
2018-03-27T12:17:05.877Z,583.47
2018-03-27T12:19:11.706Z,504.40
2018-03-27T12:21:15.495Z,999.90
2018-03-27T12:24:43.984Z,994.57
2018-03-27T12:26:47.946Z,446.60
2018-03-27T12:28:52.307Z,336.73
2018-03-27T12:30:56.043Z,203.93
2018-03-27T12:32:59.879Z,140.50
2018-03-27T12:35:03.944Z,166.13
2018-03-27T12:37:07.807Z,296.53
2018-03-27T12:39:11.542Z,474.13
2018-03-27T12:41:15.854Z,591.93
2018-03-27T12:43:19.644Z,604.50
2018-03-27T12:45:23.446Z,501.40
2018-03-27T12:47:27.490Z,631.13
2018-03-27T12:49:31.545Z,390.33
2018-03-27T12:51:39.724Z,306.10
2018-03-27T12:53:44.163Z,168.47
2018-03-27T12:55:48.438Z,478.93
2018-03-27T12:57:52.184Z,794.37
2018-03-27T12:59:56.933Z,948.47
2018-03-27T13:02:00.667Z,934.40
2018-03-27T13:04:04.461Z,919.23
2018-03-27T13:06:08.828Z,933.07
2018-03-27T13:08:13.104Z,781.33
2018-03-27T13:10:16.896Z,942.40
2018-03-27T13:12:20.919Z,791.50
2018-03-27T13:14:24.787Z,691.50
2018-03-27T13:16:28.508Z,601.70
2018-03-27T13:18:32.673Z,597.50
2018-03-27T13:20:36.642Z,359.13
2018-03-27T13:22:40.419Z,239.03
2018-03-27T13:24:44.593Z,155.67
2018-03-27T13:26:48.594Z,86.67
2018-03-27T13:28:52.394Z,60.43
2018-03-27T13:30:56.566Z,45.97
2018-03-27T13:33:00.314Z,36.43
2018-03-27T13:35:04.087Z,33.67
2018-03-27T13:37:08.242Z,29.70
2018-03-27T13:39:12.016Z,29.10
2018-03-27T13:41:15.880Z,24.20
2018-03-27T13:43:19.958Z,22.00
2018-03-27T13:45:23.681Z,25.00
2018-03-27T13:47:27.392Z,21.20
2018-03-27T13:49:32.282Z,19.67
2018-03-27T13:51:36.022Z,17.33
2018-03-27T13:53:40.134Z,18.27
2018-03-27T13:55:44.802Z,19.50
2018-03-27T13:57:48.664Z,19.50
2018-03-27T13:59:52.431Z,18.07
2018-03-27T14:01:56.470Z,17.40
2018-03-27T14:04:00.184Z,16.80
2018-03-27T14:06:05.930Z,13.67
2018-03-27T14:08:09.960Z,15.40
2018-03-27T14:10:13.791Z,16.30
2018-03-27T14:12:17.716Z,18.80
2018-03-27T14:14:21.793Z,18.27
2018-03-27T14:16:29.959Z,18.60
2018-03-27T14:18:33.737Z,19.60
2018-03-27T14:20:37.970Z,16.10
2018-03-27T14:22:41.726Z,16.80
2018-03-27T14:24:45.462Z,14.63
2018-03-27T14:26:49.524Z,16.27
2018-03-27T14:28:53.285Z,15.33
2018-03-27T14:30:57.016Z,13.57
2018-03-27T14:33:01.020Z,13.73
2018-03-27T14:35:05.146Z,12.80
2018-03-27T14:37:08.898Z,13.63
2018-03-27T14:39:12.957Z,12.80
2018-03-27T14:41:16.986Z,12.57
2018-03-27T14:43:21.007Z,12.80
2018-03-27T14:45:25.175Z,13.60
2018-03-27T14:47:28.904Z,14.53
2018-03-27T14:49:32.668Z,13.57
2018-03-27T14:51:36.850Z,106.37
2018-03-27T14:53:40.743Z,347.23
2018-03-27T14:55:44.626Z,418.83
2018-03-27T14:57:48.695Z,326.90
2018-03-27T14:59:52.508Z,331.77
2018-03-27T15:01:56.808Z,161.40
2018-03-27T15:04:01.107Z,173.90
2018-03-27T15:06:04.918Z,311.23
2018-03-27T15:08:08.668Z,189.30
2018-03-27T15:10:12.830Z,134.30
2018-03-27T15:12:16.595Z,816.57
2018-03-27T15:14:20.354Z,238.23
2018-03-27T15:16:24.458Z,391.00
2018-03-27T15:18:28.185Z,176.40
2018-03-27T15:20:31.941Z,164.30
2018-03-27T15:22:35.983Z,89.97
2018-03-27T15:24:39.787Z,83.13
2018-03-27T15:26:45.173Z,56.97
2018-03-27T15:28:49.401Z,46.03
2018-03-27T15:30:53.309Z,49.97
2018-03-27T15:32:57.102Z,42.37
2018-03-27T15:35:01.286Z,38.83
2018-03-27T15:37:05.212Z,38.80
2018-03-27T15:39:08.942Z,35.40
2018-03-27T15:41:12.975Z,38.53
2018-03-27T15:43:16.689Z,38.57
2018-03-27T15:45:20.573Z,489.23
2018-03-27T15:47:24.923Z,404.23
2018-03-27T15:49:28.839Z,461.17
2018-03-27T15:51:32.671Z,344.03
2018-03-27T15:53:36.748Z,194.17
2018-03-27T15:55:40.530Z,181.67
2018-03-27T15:57:44.250Z,136.80
2018-03-27T15:59:48.292Z,129.40
2018-03-27T16:01:52.063Z,98.67
2018-03-27T16:03:55.811Z,92.00
2018-03-27T16:05:59.888Z,85.10
2018-03-27T16:08:03.678Z,77.30
2018-03-27T16:10:07.701Z,79.80
2018-03-27T16:12:11.761Z,74.10
2018-03-27T16:14:15.561Z,63.93
2018-03-27T16:16:19.588Z,64.40
2018-03-27T16:18:23.606Z,59.70
2018-03-27T16:20:27.395Z,61.63
2018-03-27T16:22:31.420Z,54.50
2018-03-27T16:24:35.479Z,52.20
2018-03-27T16:26:39.238Z,53.03
2018-03-27T16:28:42.978Z,44.93
2018-03-27T16:30:47.006Z,49.07
2018-03-27T16:32:57.383Z,42.63
2018-03-27T16:35:01.147Z,41.57
2018-03-27T16:37:08.443Z,37.90
2018-03-27T16:39:12.206Z,36.50
2018-03-27T16:41:15.954Z,34.10
2018-03-27T16:43:20.475Z,34.63
2018-03-27T16:45:24.211Z,31.50
2018-03-27T16:47:28.086Z,34.57
2018-03-27T16:49:32.135Z,31.13
2018-03-27T16:51:35.960Z,30.47
2018-03-27T16:53:39.835Z,30.30
2018-03-27T16:55:43.943Z,30.23
2018-03-27T16:57:47.686Z,31.73
2018-03-27T16:59:51.439Z,26.23
2018-03-27T17:01:55.471Z,26.70
2018-03-27T17:03:59.662Z,26.37
2018-03-27T17:06:03.431Z,24.90
2018-03-27T17:08:07.741Z,25.70
2018-03-27T17:10:11.559Z,24.40
2018-03-27T17:12:15.447Z,24.67
2018-03-27T17:14:19.494Z,24.67
2018-03-27T17:16:23.224Z,24.67
2018-03-27T17:18:27.043Z,24.17
2018-03-27T17:20:31.077Z,24.17
2018-03-27T17:22:38.464Z,22.17
2018-03-27T17:24:42.210Z,23.00
2018-03-27T17:26:46.259Z,20.33
2018-03-27T17:28:49.983Z,19.57
2018-03-27T17:30:53.723Z,19.17
2018-03-27T17:32:57.751Z,21.40
2018-03-27T17:35:01.504Z,19.67
2018-03-27T17:37:05.310Z,19.60
2018-03-27T17:39:09.345Z,21.00
2018-03-27T17:41:13.181Z,19.23
2018-03-27T17:43:16.914Z,19.93
2018-03-27T17:45:20.963Z,20.40
2018-03-27T17:47:24.738Z,21.03
2018-03-27T17:49:28.459Z,19.20
2018-03-27T17:51:32.650Z,19.20
2018-03-27T17:53:36.383Z,17.20
2018-03-27T17:55:40.167Z,18.97
2018-03-27T17:57:44.235Z,18.73
2018-03-27T17:59:48.028Z,17.67
2018-03-27T18:01:52.000Z,18.60
2018-03-27T18:03:56.376Z,18.20
2018-03-27T18:06:00.116Z,17.50
2018-03-27T18:08:03.896Z,18.20
2018-03-27T18:10:08.019Z,17.30
2018-03-27T18:12:11.853Z,16.93
2018-03-27T18:14:15.587Z,19.33
2018-03-27T18:16:20.009Z,17.47
2018-03-27T18:18:23.888Z,18.23
2018-03-27T18:20:27.848Z,16.67
2018-03-27T18:22:32.022Z,17.60
2018-03-27T18:24:35.964Z,17.90
2018-03-27T18:26:39.677Z,18.30
2018-03-27T18:28:43.849Z,18.00
2018-03-27T18:30:47.614Z,17.90
2018-03-27T18:32:51.543Z,17.50
2018-03-27T18:34:55.824Z,15.53
2018-03-27T18:36:59.603Z,17.30
2018-03-27T18:39:03.600Z,16.80
2018-03-27T18:41:07.664Z,16.93
2018-03-27T18:43:11.394Z,16.23
2018-03-27T18:45:15.850Z,15.93
2018-03-27T18:47:20.003Z,16.60
2018-03-27T18:49:27.544Z,15.70
2018-03-27T18:51:31.270Z,17.27
2018-03-27T18:53:35.591Z,17.27
2018-03-27T18:55:39.464Z,17.13
2018-03-27T18:57:43.206Z,15.83
2018-03-27T18:59:47.261Z,17.43
2018-03-27T19:01:51.123Z,16.00
2018-03-27T19:03:54.892Z,16.70
2018-03-27T19:05:58.962Z,17.00
2018-03-27T19:08:03.043Z,15.63
2018-03-27T19:10:06.854Z,15.97
2018-03-27T19:12:11.434Z,17.83
2018-03-27T19:14:15.195Z,17.50
2018-03-27T19:16:18.970Z,16.90
2018-03-27T19:18:23.091Z,17.07
2018-03-27T19:20:27.033Z,16.47
2018-03-27T19:22:30.831Z,16.53
2018-03-27T19:24:35.369Z,16.80
2018-03-27T19:26:39.313Z,18.33
2018-03-27T19:28:43.370Z,17.40
2018-03-27T19:30:47.726Z,15.80
2018-03-27T19:32:52.681Z,16.27
2018-03-27T19:34:56.554Z,17.10
2018-03-27T19:37:00.725Z,17.07
2018-03-27T19:39:05.118Z,16.93
2018-03-27T19:41:09.019Z,18.50
2018-03-27T19:43:13.231Z,17.30
2018-03-27T19:45:17.346Z,16.03
2018-03-27T19:47:21.210Z,21.20
2018-03-27T19:49:25.523Z,18.33
2018-03-27T19:51:29.347Z,19.33
2018-03-27T19:53:33.241Z,17.70
2018-03-27T19:55:37.640Z,19.70
2018-03-27T19:57:41.635Z,18.80
2018-03-27T19:59:46.500Z,22.47
2018-03-27T20:01:50.895Z,23.33
2018-03-27T20:03:54.987Z,21.37
2018-03-27T20:06:02.223Z,22.70
2018-03-27T20:08:06.474Z,22.27
2018-03-27T20:10:10.606Z,22.50
2018-03-27T20:12:14.712Z,23.47
2018-03-27T20:14:18.822Z,22.50
2018-03-27T20:16:22.567Z,23.27
2018-03-27T20:18:26.494Z,381.00
2018-03-27T20:20:30.599Z,75.77
2018-03-27T20:22:34.460Z,217.23
2018-03-27T20:24:38.318Z,152.37
2018-03-27T20:26:42.723Z,145.00
2018-03-27T20:28:46.520Z,126.10
2018-03-27T20:30:50.306Z,117.50
2018-03-27T20:32:54.655Z,110.77
2018-03-27T20:34:58.539Z,101.50
2018-03-27T20:37:02.435Z,91.83
2018-03-27T20:39:07.003Z,72.47
2018-03-27T20:41:11.008Z,74.67
2018-03-27T20:43:15.038Z,57.97
2018-03-27T20:45:19.280Z,52.63
2018-03-27T20:47:23.122Z,50.70
2018-03-27T20:49:26.994Z,43.10
2018-03-27T20:51:31.207Z,381.33
2018-03-27T20:53:35.816Z,229.90
2018-03-27T20:55:39.571Z,438.63
2018-03-27T20:57:43.736Z,350.63
2018-03-27T20:59:47.470Z,253.63
2018-03-27T21:01:51.903Z,180.57
2018-03-27T21:03:56.058Z,136.97
2018-03-27T21:05:59.959Z,128.60
2018-03-27T21:08:03.910Z,105.07
2018-03-27T21:10:08.228Z,93.57
2018-03-27T21:12:12.002Z,90.10
2018-03-27T21:14:15.911Z,82.37
2018-03-27T21:16:20.179Z,80.20
2018-03-27T21:18:24.047Z,85.00
2018-03-27T21:20:27.787Z,62.60
2018-03-27T21:22:32.080Z,57.33
2018-03-27T21:24:35.843Z,64.00
2018-03-27T21:26:39.583Z,55.33
2018-03-27T21:28:44.204Z,53.20
2018-03-27T21:30:48.113Z,49.87
2018-03-27T21:32:52.224Z,45.57
2018-03-27T21:34:56.323Z,50.07
2018-03-27T21:37:00.152Z,44.00
2018-03-27T21:39:04.339Z,46.80
2018-03-27T21:41:08.340Z,45.80
2018-03-27T21:43:12.070Z,45.07
2018-03-27T21:45:16.025Z,39.13
2018-03-27T21:47:20.592Z,40.87
2018-03-27T21:49:24.715Z,38.07
2018-03-27T21:51:28.538Z,39.70
2018-03-27T21:53:33.203Z,39.70
2018-03-27T21:55:36.987Z,36.30
2018-03-27T21:57:41.934Z,33.43
2018-03-27T21:59:46.379Z,34.13
2018-03-27T22:01:50.126Z,29.53
2018-03-27T22:03:54.074Z,31.00
2018-03-27T22:05:58.286Z,33.60
2018-03-27T22:08:02.688Z,29.63
2018-03-27T22:10:07.073Z,29.30
2018-03-27T22:12:11.345Z,29.10
2018-03-27T22:14:15.218Z,29.20
2018-03-27T22:16:18.941Z,26.33
2018-03-27T22:18:24.460Z,26.63
2018-03-27T22:20:28.480Z,26.20
2018-03-27T22:22:32.610Z,27.63
2018-03-27T22:24:38.296Z,25.37
2018-03-27T22:26:42.183Z,27.60
2018-03-27T22:28:46.023Z,26.57
2018-03-27T22:30:50.612Z,26.60
2018-03-27T22:32:55.513Z,24.77
2018-03-27T22:35:01.135Z,25.40
2018-03-27T22:37:06.005Z,26.30
2018-03-27T22:39:14.221Z,25.33
2018-03-27T22:41:17.962Z,24.97
2018-03-27T22:43:22.366Z,22.57
2018-03-27T22:45:26.576Z,24.17
2018-03-27T22:47:30.328Z,24.70
2018-03-27T22:49:34.346Z,22.30
2018-03-27T22:51:38.128Z,24.20
2018-03-27T22:53:44.242Z,23.73
2018-03-27T22:55:48.505Z,26.03
2018-03-27T22:57:52.308Z,22.30
2018-03-27T22:59:56.307Z,21.87
2018-03-27T23:02:00.351Z,22.37
2018-03-27T23:04:04.121Z,23.07
2018-03-27T23:06:08.793Z,24.57
2018-03-27T23:08:13.244Z,20.80
2018-03-27T23:10:17.078Z,22.43
2018-03-27T23:12:25.011Z,21.00
2018-03-27T23:14:29.932Z,21.93
2018-03-27T23:16:33.693Z,20.77
2018-03-27T23:18:37.795Z,23.23
2018-03-27T23:20:41.952Z,21.10
2018-03-27T23:22:46.055Z,21.90
2018-03-27T23:24:50.099Z,20.50
2018-03-27T23:26:54.224Z,21.93
2018-03-27T23:28:58.380Z,22.10
2018-03-27T23:31:02.331Z,20.77
2018-03-27T23:33:06.476Z,20.23
2018-03-27T23:35:10.731Z,19.67
2018-03-27T23:37:14.704Z,21.43
2018-03-27T23:39:19.333Z,23.97
2018-03-27T23:41:23.478Z,22.17
2018-03-27T23:43:27.668Z,21.50
2018-03-27T23:45:31.755Z,19.57
2018-03-27T23:47:35.657Z,20.60
2018-03-27T23:49:39.719Z,20.73
2018-03-27T23:51:43.729Z,21.20
2018-03-27T23:53:47.695Z,19.87
2018-03-27T23:55:51.439Z,19.10
2018-03-27T23:57:55.628Z,19.97
2018-03-27T23:59:59.593Z,19.63
